sensor_id;sensor_type;location;lat;lon;timestamp;P1;durP1;ratioP1;P2;durP2;ratioP2
73980;SDS011;62348;51.412;5.436;2023-09-19T00:01:20;15.20;;;2.92;;
73980;SDS011;62348;51.412;5.436;2023-09-19T00:03:45;15.77;;;3.25;;
73980;SDS011;62348;51.412;5.436;2023-09-19T00:06:11;14.23;;;3.17;;
73980;SDS011;62348;51.412;5.436;2023-09-19T00:08:38;7.75;;;2.63;;
73980;SDS011;62348;51.412;5.436;2023-09-19T00:11:04;7.88;;;2.53;;
73980;SDS011;62348;51.412;5.436;2023-09-19T00:13:31;15.98;;;3.60;;
73980;SDS011;62348;51.412;5.436;2023-09-19T00:15:58;10.02;;;2.83;;
73980;SDS011;62348;51.412;5.436;2023-09-19T00:18:25;14.43;;;2.80;;
73980;SDS011;62348;51.412;5.436;2023-09-19T00:21:00;13.05;;;3.15;;
73980;SDS011;62348;51.412;5.436;2023-09-19T00:23:26;11.27;;;2.97;;
73980;SDS011;62348;51.412;5.436;2023-09-19T00:25:53;14.40;;;4.10;;
73980;SDS011;62348;51.412;5.436;2023-09-19T00:28:22;11.88;;;2.40;;
73980;SDS011;62348;51.412;5.436;2023-09-19T00:30:48;13.50;;;3.13;;
73980;SDS011;62348;51.412;5.436;2023-09-19T00:33:16;8.98;;;2.63;;
73980;SDS011;62348;51.412;5.436;2023-09-19T00:35:50;14.07;;;3.10;;
73980;SDS011;62348;51.412;5.436;2023-09-19T00:38:16;12.75;;;2.30;;
73980;SDS011;62348;51.412;5.436;2023-09-19T00:40:46;10.07;;;2.40;;
73980;SDS011;62348;51.412;5.436;2023-09-19T00:43:12;8.55;;;2.75;;
73980;SDS011;62348;51.412;5.436;2023-09-19T00:45:37;12.55;;;4.05;;
73980;SDS011;62348;51.412;5.436;2023-09-19T00:48:04;11.23;;;2.72;;
73980;SDS011;62348;51.412;5.436;2023-09-19T00:50:32;15.52;;;3.08;;
73980;SDS011;62348;51.412;5.436;2023-09-19T00:52:58;10.00;;;3.30;;
73980;SDS011;62348;51.412;5.436;2023-09-19T00:55:24;16.27;;;3.92;;
73980;SDS011;62348;51.412;5.436;2023-09-19T00:57:50;11.23;;;2.38;;
73980;SDS011;62348;51.412;5.436;2023-09-19T01:00:16;15.32;;;3.88;;
73980;SDS011;62348;51.412;5.436;2023-09-19T01:02:45;10.70;;;2.83;;
73980;SDS011;62348;51.412;5.436;2023-09-19T01:05:11;15.63;;;3.35;;
73980;SDS011;62348;51.412;5.436;2023-09-19T01:07:40;8.68;;;2.50;;
73980;SDS011;62348;51.412;5.436;2023-09-19T01:10:08;13.23;;;2.63;;
73980;SDS011;62348;51.412;5.436;2023-09-19T01:20:40;11.43;;;2.88;;
73980;SDS011;62348;51.412;5.436;2023-09-19T01:31:38;11.93;;;2.90;;
73980;SDS011;62348;51.412;5.436;2023-09-19T01:34:07;14.40;;;2.72;;
73980;SDS011;62348;51.412;5.436;2023-09-19T01:36:36;11.07;;;3.10;;
73980;SDS011;62348;51.412;5.436;2023-09-19T01:39:06;9.10;;;2.75;;
73980;SDS011;62348;51.412;5.436;2023-09-19T01:44:22;16.27;;;3.67;;
73980;SDS011;62348;51.412;5.436;2023-09-19T01:46:54;7.22;;;2.42;;
73980;SDS011;62348;51.412;5.436;2023-09-19T01:52:13;13.75;;;3.40;;
73980;SDS011;62348;51.412;5.436;2023-09-19T01:54:48;11.63;;;2.40;;
73980;SDS011;62348;51.412;5.436;2023-09-19T02:00:09;12.50;;;2.78;;
73980;SDS011;62348;51.412;5.436;2023-09-19T02:02:40;9.25;;;2.47;;
73980;SDS011;62348;51.412;5.436;2023-09-19T02:07:35;8.82;;;2.28;;
73980;SDS011;62348;51.412;5.436;2023-09-19T02:10:03;9.23;;;2.78;;
73980;SDS011;62348;51.412;5.436;2023-09-19T02:12:30;13.88;;;2.50;;
73980;SDS011;62348;51.412;5.436;2023-09-19T02:14:57;8.18;;;2.72;;
73980;SDS011;62348;51.412;5.436;2023-09-19T02:17:24;10.35;;;2.92;;
73980;SDS011;62348;51.412;5.436;2023-09-19T02:19:51;11.45;;;2.42;;
73980;SDS011;62348;51.412;5.436;2023-09-19T02:22:17;11.25;;;2.60;;
73980;SDS011;62348;51.412;5.436;2023-09-19T02:24:43;8.13;;;2.22;;
73980;SDS011;62348;51.412;5.436;2023-09-19T02:27:08;13.57;;;2.80;;
73980;SDS011;62348;51.412;5.436;2023-09-19T02:29:34;10.73;;;3.20;;
73980;SDS011;62348;51.412;5.436;2023-09-19T02:31:59;15.43;;;2.80;;
73980;SDS011;62348;51.412;5.436;2023-09-19T02:34:27;7.80;;;1.98;;
73980;SDS011;62348;51.412;5.436;2023-09-19T02:36:53;10.30;;;2.53;;
73980;SDS011;62348;51.412;5.436;2023-09-19T02:39:21;7.55;;;2.30;;
73980;SDS011;62348;51.412;5.436;2023-09-19T02:41:46;10.82;;;2.15;;
73980;SDS011;62348;51.412;5.436;2023-09-19T02:44:11;8.50;;;2.15;;
73980;SDS011;62348;51.412;5.436;2023-09-19T02:46:37;8.80;;;1.95;;
73980;SDS011;62348;51.412;5.436;2023-09-19T02:49:03;8.68;;;2.70;;
73980;SDS011;62348;51.412;5.436;2023-09-19T02:51:31;9.25;;;2.75;;
73980;SDS011;62348;51.412;5.436;2023-09-19T02:53:58;11.27;;;2.47;;
73980;SDS011;62348;51.412;5.436;2023-09-19T02:56:24;10.75;;;2.65;;
73980;SDS011;62348;51.412;5.436;2023-09-19T02:58:50;13.82;;;2.63;;
73980;SDS011;62348;51.412;5.436;2023-09-19T03:01:16;8.05;;;2.30;;
73980;SDS011;62348;51.412;5.436;2023-09-19T03:03:43;11.38;;;3.05;;
73980;SDS011;62348;51.412;5.436;2023-09-19T03:06:10;6.90;;;2.17;;
73980;SDS011;62348;51.412;5.436;2023-09-19T03:08:36;13.57;;;2.60;;
73980;SDS011;62348;51.412;5.436;2023-09-19T03:11:04;7.63;;;2.70;;
73980;SDS011;62348;51.412;5.436;2023-09-19T03:13:31;10.02;;;2.33;;
73980;SDS011;62348;51.412;5.436;2023-09-19T03:15:57;7.10;;;2.75;;
73980;SDS011;62348;51.412;5.436;2023-09-19T03:18:23;9.75;;;2.72;;
73980;SDS011;62348;51.412;5.436;2023-09-19T03:20:54;8.77;;;2.45;;
73980;SDS011;62348;51.412;5.436;2023-09-19T03:23:26;13.10;;;4.05;;
73980;SDS011;62348;51.412;5.436;2023-09-19T03:25:52;7.03;;;2.08;;
73980;SDS011;62348;51.412;5.436;2023-09-19T03:28:18;10.00;;;2.83;;
73980;SDS011;62348;51.412;5.436;2023-09-19T03:30:45;11.43;;;2.80;;
73980;SDS011;62348;51.412;5.436;2023-09-19T03:33:11;10.65;;;2.25;;
73980;SDS011;62348;51.412;5.436;2023-09-19T03:35:37;8.98;;;2.15;;
73980;SDS011;62348;51.412;5.436;2023-09-19T03:38:03;11.68;;;2.88;;
73980;SDS011;62348;51.412;5.436;2023-09-19T03:40:29;10.45;;;2.80;;
73980;SDS011;62348;51.412;5.436;2023-09-19T03:42:54;7.82;;;2.65;;
73980;SDS011;62348;51.412;5.436;2023-09-19T03:45:20;9.45;;;2.42;;
73980;SDS011;62348;51.412;5.436;2023-09-19T03:47:45;9.35;;;2.13;;
73980;SDS011;62348;51.412;5.436;2023-09-19T03:50:13;8.82;;;2.58;;
73980;SDS011;62348;51.412;5.436;2023-09-19T03:52:43;10.50;;;2.80;;
73980;SDS011;62348;51.412;5.436;2023-09-19T03:55:08;12.30;;;2.40;;
73980;SDS011;62348;51.412;5.436;2023-09-19T03:57:35;9.60;;;2.60;;
73980;SDS011;62348;51.412;5.436;2023-09-19T04:00:01;10.30;;;2.35;;
73980;SDS011;62348;51.412;5.436;2023-09-19T04:02:27;14.18;;;2.90;;
73980;SDS011;62348;51.412;5.436;2023-09-19T04:04:58;10.75;;;2.08;;
73980;SDS011;62348;51.412;5.436;2023-09-19T04:07:24;10.65;;;3.00;;
73980;SDS011;62348;51.412;5.436;2023-09-19T04:09:51;12.55;;;2.97;;
73980;SDS011;62348;51.412;5.436;2023-09-19T04:12:18;9.43;;;2.67;;
73980;SDS011;62348;51.412;5.436;2023-09-19T04:14:44;11.93;;;3.33;;
73980;SDS011;62348;51.412;5.436;2023-09-19T04:17:09;7.68;;;2.15;;
73980;SDS011;62348;51.412;5.436;2023-09-19T04:19:35;11.73;;;3.10;;
73980;SDS011;62348;51.412;5.436;2023-09-19T04:22:01;6.90;;;2.15;;
73980;SDS011;62348;51.412;5.436;2023-09-19T04:24:27;8.50;;;2.35;;
73980;SDS011;62348;51.412;5.436;2023-09-19T04:26:53;6.93;;;2.13;;
73980;SDS011;62348;51.412;5.436;2023-09-19T04:29:18;11.43;;;2.67;;
73980;SDS011;62348;51.412;5.436;2023-09-19T04:31:45;8.13;;;2.47;;
73980;SDS011;62348;51.412;5.436;2023-09-19T04:34:11;11.18;;;2.65;;
73980;SDS011;62348;51.412;5.436;2023-09-19T04:36:42;16.52;;;3.70;;
73980;SDS011;62348;51.412;5.436;2023-09-19T04:39:08;10.95;;;3.13;;
73980;SDS011;62348;51.412;5.436;2023-09-19T04:41:35;12.90;;;2.50;;
73980;SDS011;62348;51.412;5.436;2023-09-19T04:44:04;9.00;;;2.60;;
73980;SDS011;62348;51.412;5.436;2023-09-19T04:46:30;10.65;;;2.45;;
73980;SDS011;62348;51.412;5.436;2023-09-19T04:48:55;9.77;;;2.47;;
73980;SDS011;62348;51.412;5.436;2023-09-19T04:51:21;8.85;;;2.25;;
73980;SDS011;62348;51.412;5.436;2023-09-19T04:53:46;9.27;;;2.40;;
73980;SDS011;62348;51.412;5.436;2023-09-19T04:56:13;12.38;;;2.53;;
73980;SDS011;62348;51.412;5.436;2023-09-19T04:58:38;12.35;;;3.10;;
73980;SDS011;62348;51.412;5.436;2023-09-19T05:01:03;11.93;;;2.97;;
73980;SDS011;62348;51.412;5.436;2023-09-19T05:03:29;10.25;;;2.72;;
73980;SDS011;62348;51.412;5.436;2023-09-19T05:05:54;13.73;;;2.58;;
73980;SDS011;62348;51.412;5.436;2023-09-19T05:08:20;10.15;;;2.38;;
73980;SDS011;62348;51.412;5.436;2023-09-19T05:10:47;11.48;;;2.58;;
73980;SDS011;62348;51.412;5.436;2023-09-19T05:13:12;9.88;;;2.40;;
73980;SDS011;62348;51.412;5.436;2023-09-19T05:15:38;12.93;;;3.63;;
73980;SDS011;62348;51.412;5.436;2023-09-19T05:18:04;9.60;;;2.40;;
73980;SDS011;62348;51.412;5.436;2023-09-19T05:20:30;10.75;;;2.75;;
73980;SDS011;62348;51.412;5.436;2023-09-19T05:22:59;7.80;;;2.35;;
73980;SDS011;62348;51.412;5.436;2023-09-19T05:25:27;8.13;;;3.17;;
73980;SDS011;62348;51.412;5.436;2023-09-19T05:27:57;7.13;;;2.33;;
73980;SDS011;62348;51.412;5.436;2023-09-19T05:30:24;10.98;;;2.65;;
73980;SDS011;62348;51.412;5.436;2023-09-19T05:32:52;14.98;;;2.95;;
73980;SDS011;62348;51.412;5.436;2023-09-19T05:35:18;15.80;;;3.63;;
73980;SDS011;62348;51.412;5.436;2023-09-19T05:37:43;7.47;;;2.33;;
73980;SDS011;62348;51.412;5.436;2023-09-19T05:40:09;8.48;;;2.08;;
73980;SDS011;62348;51.412;5.436;2023-09-19T05:42:37;9.48;;;2.50;;
73980;SDS011;62348;51.412;5.436;2023-09-19T05:45:04;8.88;;;2.47;;
73980;SDS011;62348;51.412;5.436;2023-09-19T05:47:31;20.17;;;3.97;;
73980;SDS011;62348;51.412;5.436;2023-09-19T05:49:57;9.70;;;2.45;;
73980;SDS011;62348;51.412;5.436;2023-09-19T05:52:22;14.13;;;2.53;;
73980;SDS011;62348;51.412;5.436;2023-09-19T05:54:48;10.30;;;2.33;;
73980;SDS011;62348;51.412;5.436;2023-09-19T05:57:14;8.00;;;2.17;;
73980;SDS011;62348;51.412;5.436;2023-09-19T05:59:40;10.10;;;2.67;;
73980;SDS011;62348;51.412;5.436;2023-09-19T06:02:07;10.98;;;2.97;;
73980;SDS011;62348;51.412;5.436;2023-09-19T06:04:34;8.07;;;2.20;;
73980;SDS011;62348;51.412;5.436;2023-09-19T06:07:00;12.48;;;3.30;;
73980;SDS011;62348;51.412;5.436;2023-09-19T06:09:25;15.85;;;2.85;;
73980;SDS011;62348;51.412;5.436;2023-09-19T06:11:53;11.48;;;2.17;;
73980;SDS011;62348;51.412;5.436;2023-09-19T06:14:19;13.73;;;3.88;;
73980;SDS011;62348;51.412;5.436;2023-09-19T06:16:45;13.07;;;2.75;;
73980;SDS011;62348;51.412;5.436;2023-09-19T06:19:10;11.45;;;3.05;;
73980;SDS011;62348;51.412;5.436;2023-09-19T06:21:36;11.23;;;2.50;;
73980;SDS011;62348;51.412;5.436;2023-09-19T06:24:02;15.90;;;2.90;;
73980;SDS011;62348;51.412;5.436;2023-09-19T06:26:28;10.38;;;2.83;;
73980;SDS011;62348;51.412;5.436;2023-09-19T06:28:54;13.35;;;3.13;;
73980;SDS011;62348;51.412;5.436;2023-09-19T06:31:20;12.20;;;3.33;;
73980;SDS011;62348;51.412;5.436;2023-09-19T06:33:48;12.05;;;2.85;;
73980;SDS011;62348;51.412;5.436;2023-09-19T06:36:13;10.63;;;2.78;;
73980;SDS011;62348;51.412;5.436;2023-09-19T06:38:40;11.07;;;2.67;;
73980;SDS011;62348;51.412;5.436;2023-09-19T06:41:06;10.30;;;4.18;;
73980;SDS011;62348;51.412;5.436;2023-09-19T06:43:35;14.77;;;2.20;;
73980;SDS011;62348;51.412;5.436;2023-09-19T06:46:01;6.80;;;2.20;;
73980;SDS011;62348;51.412;5.436;2023-09-19T06:48:27;12.27;;;2.72;;
73980;SDS011;62348;51.412;5.436;2023-09-19T06:50:54;11.90;;;2.65;;
73980;SDS011;62348;51.412;5.436;2023-09-19T06:53:20;10.82;;;2.90;;
73980;SDS011;62348;51.412;5.436;2023-09-19T06:55:45;11.52;;;2.90;;
73980;SDS011;62348;51.412;5.436;2023-09-19T06:58:12;12.23;;;3.00;;
73980;SDS011;62348;51.412;5.436;2023-09-19T07:00:38;11.63;;;2.83;;
73980;SDS011;62348;51.412;5.436;2023-09-19T07:05:33;12.52;;;2.83;;
73980;SDS011;62348;51.412;5.436;2023-09-19T07:08:02;9.48;;;3.65;;
73980;SDS011;62348;51.412;5.436;2023-09-19T07:10:28;12.30;;;2.30;;
73980;SDS011;62348;51.412;5.436;2023-09-19T07:12:59;13.20;;;2.85;;
73980;SDS011;62348;51.412;5.436;2023-09-19T07:15:29;17.30;;;3.70;;
73980;SDS011;62348;51.412;5.436;2023-09-19T07:17:58;11.82;;;3.65;;
73980;SDS011;62348;51.412;5.436;2023-09-19T07:20:25;14.13;;;3.40;;
73980;SDS011;62348;51.412;5.436;2023-09-19T07:22:52;12.75;;;2.80;;
73980;SDS011;62348;51.412;5.436;2023-09-19T07:25:19;15.50;;;3.60;;
73980;SDS011;62348;51.412;5.436;2023-09-19T07:27:45;12.73;;;3.17;;
73980;SDS011;62348;51.412;5.436;2023-09-19T07:30:11;16.73;;;3.10;;
73980;SDS011;62348;51.412;5.436;2023-09-19T07:32:37;13.82;;;2.88;;
73980;SDS011;62348;51.412;5.436;2023-09-19T07:35:03;11.15;;;2.50;;
73980;SDS011;62348;51.412;5.436;2023-09-19T07:37:30;14.52;;;3.20;;
73980;SDS011;62348;51.412;5.436;2023-09-19T07:39:58;10.35;;;2.85;;
73980;SDS011;62348;51.412;5.436;2023-09-19T07:42:34;12.57;;;2.40;;
73980;SDS011;62348;51.412;5.436;2023-09-19T07:45:00;10.63;;;3.22;;
73980;SDS011;62348;51.412;5.436;2023-09-19T07:47:26;8.18;;;2.38;;
73980;SDS011;62348;51.412;5.436;2023-09-19T07:49:52;14.75;;;3.70;;
73980;SDS011;62348;51.412;5.436;2023-09-19T07:52:18;10.48;;;2.65;;
73980;SDS011;62348;51.412;5.436;2023-09-19T07:54:44;13.05;;;2.60;;
73980;SDS011;62348;51.412;5.436;2023-09-19T07:57:10;12.40;;;2.50;;
73980;SDS011;62348;51.412;5.436;2023-09-19T07:59:36;11.10;;;2.40;;
73980;SDS011;62348;51.412;5.436;2023-09-19T08:02:03;12.20;;;2.47;;
73980;SDS011;62348;51.412;5.436;2023-09-19T08:04:29;8.70;;;1.90;;
73980;SDS011;62348;51.412;5.436;2023-09-19T08:06:58;13.23;;;2.63;;
73980;SDS011;62348;51.412;5.436;2023-09-19T08:09:24;12.93;;;3.10;;
73980;SDS011;62348;51.412;5.436;2023-09-19T08:11:49;13.50;;;2.70;;
73980;SDS011;62348;51.412;5.436;2023-09-19T08:14:15;11.43;;;3.10;;
73980;SDS011;62348;51.412;5.436;2023-09-19T08:16:41;13.10;;;2.97;;
73980;SDS011;62348;51.412;5.436;2023-09-19T08:19:07;9.48;;;2.65;;
73980;SDS011;62348;51.412;5.436;2023-09-19T08:21:35;12.13;;;3.13;;
73980;SDS011;62348;51.412;5.436;2023-09-19T08:24:01;16.48;;;2.72;;
73980;SDS011;62348;51.412;5.436;2023-09-19T08:26:29;9.25;;;2.63;;
73980;SDS011;62348;51.412;5.436;2023-09-19T08:28:55;11.65;;;2.60;;
73980;SDS011;62348;51.412;5.436;2023-09-19T08:31:21;9.52;;;2.40;;
73980;SDS011;62348;51.412;5.436;2023-09-19T08:33:48;11.50;;;2.30;;
73980;SDS011;62348;51.412;5.436;2023-09-19T08:36:14;12.57;;;2.95;;
73980;SDS011;62348;51.412;5.436;2023-09-19T08:38:40;9.00;;;2.72;;
73980;SDS011;62348;51.412;5.436;2023-09-19T08:41:06;11.75;;;2.40;;
73980;SDS011;62348;51.412;5.436;2023-09-19T08:43:33;10.80;;;2.70;;
73980;SDS011;62348;51.412;5.436;2023-09-19T08:48:30;16.40;;;2.75;;
73980;SDS011;62348;51.412;5.436;2023-09-19T08:55:59;12.23;;;3.90;;
73980;SDS011;62348;51.412;5.436;2023-09-19T08:58:31;15.15;;;3.35;;
73980;SDS011;62348;51.412;5.436;2023-09-19T09:01:00;11.23;;;3.05;;
73980;SDS011;62348;51.412;5.436;2023-09-19T09:03:26;12.80;;;2.63;;
73980;SDS011;62348;51.412;5.436;2023-09-19T09:05:57;10.98;;;2.78;;
73980;SDS011;62348;51.412;5.436;2023-09-19T09:08:23;12.85;;;4.18;;
73980;SDS011;62348;51.412;5.436;2023-09-19T09:10:50;19.70;;;3.28;;
73980;SDS011;62348;51.412;5.436;2023-09-19T09:13:16;15.40;;;2.88;;
73980;SDS011;62348;51.412;5.436;2023-09-19T09:15:42;21.17;;;4.28;;
73980;SDS011;62348;51.412;5.436;2023-09-19T09:18:09;12.52;;;2.75;;
73980;SDS011;62348;51.412;5.436;2023-09-19T09:20:35;12.38;;;2.95;;
73980;SDS011;62348;51.412;5.436;2023-09-19T09:23:01;12.77;;;3.08;;
73980;SDS011;62348;51.412;5.436;2023-09-19T09:28:19;19.58;;;4.20;;
73980;SDS011;62348;51.412;5.436;2023-09-19T09:30:46;7.60;;;2.50;;
73980;SDS011;62348;51.412;5.436;2023-09-19T09:33:11;12.82;;;2.70;;
73980;SDS011;62348;51.412;5.436;2023-09-19T09:38:21;10.68;;;2.72;;
73980;SDS011;62348;51.412;5.436;2023-09-19T09:40:51;13.10;;;2.67;;
73980;SDS011;62348;51.412;5.436;2023-09-19T09:46:15;11.50;;;3.22;;
73980;SDS011;62348;51.412;5.436;2023-09-19T09:49:03;6.78;;;2.70;;
73980;SDS011;62348;51.412;5.436;2023-09-19T09:51:51;10.48;;;3.03;;
73980;SDS011;62348;51.412;5.436;2023-09-19T09:54:28;11.30;;;2.47;;
73980;SDS011;62348;51.412;5.436;2023-09-19T10:02:16;9.57;;;2.47;;
73980;SDS011;62348;51.412;5.436;2023-09-19T10:04:50;10.65;;;2.40;;
73980;SDS011;62348;51.412;5.436;2023-09-19T10:07:32;7.93;;;2.33;;
73980;SDS011;62348;51.412;5.436;2023-09-19T10:10:03;7.85;;;2.30;;
73980;SDS011;62348;51.412;5.436;2023-09-19T10:12:56;10.63;;;3.50;;
73980;SDS011;62348;51.412;5.436;2023-09-19T10:15:28;14.45;;;3.72;;
73980;SDS011;62348;51.412;5.436;2023-09-19T10:17:57;11.52;;;2.88;;
73980;SDS011;62348;51.412;5.436;2023-09-19T10:22:55;10.70;;;2.47;;
73980;SDS011;62348;51.412;5.436;2023-09-19T10:25:29;14.45;;;2.97;;
73980;SDS011;62348;51.412;5.436;2023-09-19T10:27:56;15.32;;;2.28;;
73980;SDS011;62348;51.412;5.436;2023-09-19T10:30:24;15.25;;;2.95;;
73980;SDS011;62348;51.412;5.436;2023-09-19T10:32:54;11.30;;;2.50;;
73980;SDS011;62348;51.412;5.436;2023-09-19T10:35:23;10.98;;;3.35;;
73980;SDS011;62348;51.412;5.436;2023-09-19T10:37:49;11.50;;;2.70;;
73980;SDS011;62348;51.412;5.436;2023-09-19T10:40:16;10.45;;;2.30;;
73980;SDS011;62348;51.412;5.436;2023-09-19T10:42:45;10.07;;;2.25;;
73980;SDS011;62348;51.412;5.436;2023-09-19T10:45:13;8.45;;;2.00;;
73980;SDS011;62348;51.412;5.436;2023-09-19T10:47:43;9.45;;;2.08;;
73980;SDS011;62348;51.412;5.436;2023-09-19T10:50:31;11.63;;;2.75;;
73980;SDS011;62348;51.412;5.436;2023-09-19T10:52:56;12.25;;;2.20;;
73980;SDS011;62348;51.412;5.436;2023-09-19T10:55:30;6.97;;;2.22;;
73980;SDS011;62348;51.412;5.436;2023-09-19T10:57:58;9.65;;;2.28;;
73980;SDS011;62348;51.412;5.436;2023-09-19T11:00:25;11.18;;;2.47;;
73980;SDS011;62348;51.412;5.436;2023-09-19T11:06:03;8.70;;;2.25;;
73980;SDS011;62348;51.412;5.436;2023-09-19T11:14:28;16.85;;;2.42;;
73980;SDS011;62348;51.412;5.436;2023-09-19T11:30:34;5.68;;;2.08;;
73980;SDS011;62348;51.412;5.436;2023-09-19T11:36:06;10.77;;;1.77;;
73980;SDS011;62348;51.412;5.436;2023-09-19T11:46:28;5.30;;;2.00;;
73980;SDS011;62348;51.412;5.436;2023-09-19T11:48:58;4.13;;;1.40;;
73980;SDS011;62348;51.412;5.436;2023-09-19T11:51:40;5.05;;;1.60;;
73980;SDS011;62348;51.412;5.436;2023-09-19T11:54:11;5.43;;;1.55;;
73980;SDS011;62348;51.412;5.436;2023-09-19T11:56:44;4.63;;;1.10;;
73980;SDS011;62348;51.412;5.436;2023-09-19T11:59:10;5.55;;;1.10;;
73980;SDS011;62348;51.412;5.436;2023-09-19T12:01:37;8.65;;;1.90;;
73980;SDS011;62348;51.412;5.436;2023-09-19T12:04:11;4.20;;;1.33;;
73980;SDS011;62348;51.412;5.436;2023-09-19T12:06:37;6.72;;;1.40;;
73980;SDS011;62348;51.412;5.436;2023-09-19T12:09:04;3.97;;;1.15;;
73980;SDS011;62348;51.412;5.436;2023-09-19T12:11:32;3.70;;;1.02;;
73980;SDS011;62348;51.412;5.436;2023-09-19T12:13:58;6.47;;;1.20;;
73980;SDS011;62348;51.412;5.436;2023-09-19T12:16:25;2.47;;;1.30;;
73980;SDS011;62348;51.412;5.436;2023-09-19T12:18:55;7.80;;;1.30;;
73980;SDS011;62348;51.412;5.436;2023-09-19T12:23:59;4.85;;;1.35;;
73980;SDS011;62348;51.412;5.436;2023-09-19T12:26:28;5.55;;;1.35;;
73980;SDS011;62348;51.412;5.436;2023-09-19T12:28:54;7.28;;;1.58;;
73980;SDS011;62348;51.412;5.436;2023-09-19T12:31:20;3.25;;;1.23;;
73980;SDS011;62348;51.412;5.436;2023-09-19T12:33:46;4.18;;;1.13;;
73980;SDS011;62348;51.412;5.436;2023-09-19T12:36:22;3.20;;;0.90;;
73980;SDS011;62348;51.412;5.436;2023-09-19T12:38:54;3.67;;;1.02;;
73980;SDS011;62348;51.412;5.436;2023-09-19T12:41:20;2.10;;;0.70;;
73980;SDS011;62348;51.412;5.436;2023-09-19T12:43:47;5.93;;;1.25;;
73980;SDS011;62348;51.412;5.436;2023-09-19T12:46:13;2.63;;;1.50;;
73980;SDS011;62348;51.412;5.436;2023-09-19T12:48:40;4.82;;;1.30;;
73980;SDS011;62348;51.412;5.436;2023-09-19T12:51:11;5.05;;;1.45;;
73980;SDS011;62348;51.412;5.436;2023-09-19T12:56:15;4.35;;;1.27;;
73980;SDS011;62348;51.412;5.436;2023-09-19T12:58:55;4.47;;;1.05;;
73980;SDS011;62348;51.412;5.436;2023-09-19T13:01:23;5.47;;;1.50;;
73980;SDS011;62348;51.412;5.436;2023-09-19T13:06:43;2.55;;;0.98;;
73980;SDS011;62348;51.412;5.436;2023-09-19T13:09:10;3.00;;;1.08;;
73980;SDS011;62348;51.412;5.436;2023-09-19T13:11:36;5.25;;;1.08;;
73980;SDS011;62348;51.412;5.436;2023-09-19T13:14:26;7.13;;;1.70;;
73980;SDS011;62348;51.412;5.436;2023-09-19T13:19:47;4.57;;;1.02;;
73980;SDS011;62348;51.412;5.436;2023-09-19T13:25:03;4.30;;;1.08;;
73980;SDS011;62348;51.412;5.436;2023-09-19T13:27:42;6.03;;;1.45;;
73980;SDS011;62348;51.412;5.436;2023-09-19T13:30:11;4.93;;;1.15;;
73980;SDS011;62348;51.412;5.436;2023-09-19T13:32:37;4.88;;;1.08;;
73980;SDS011;62348;51.412;5.436;2023-09-19T13:35:05;2.88;;;1.02;;
73980;SDS011;62348;51.412;5.436;2023-09-19T13:37:34;3.13;;;1.05;;
73980;SDS011;62348;51.412;5.436;2023-09-19T13:40:06;5.40;;;1.83;;
73980;SDS011;62348;51.412;5.436;2023-09-19T13:42:33;6.07;;;1.35;;
73980;SDS011;62348;51.412;5.436;2023-09-19T13:44:59;7.32;;;1.20;;
73980;SDS011;62348;51.412;5.436;2023-09-19T13:47:25;4.47;;;1.00;;
73980;SDS011;62348;51.412;5.436;2023-09-19T13:49:52;8.23;;;1.30;;
73980;SDS011;62348;51.412;5.436;2023-09-19T13:52:21;5.13;;;0.98;;
73980;SDS011;62348;51.412;5.436;2023-09-19T13:54:48;2.80;;;0.82;;
73980;SDS011;62348;51.412;5.436;2023-09-19T13:57:15;4.72;;;1.42;;
73980;SDS011;62348;51.412;5.436;2023-09-19T13:59:41;2.85;;;0.98;;
73980;SDS011;62348;51.412;5.436;2023-09-19T14:02:07;3.72;;;1.17;;
73980;SDS011;62348;51.412;5.436;2023-09-19T14:04:32;3.40;;;1.00;;
73980;SDS011;62348;51.412;5.436;2023-09-19T14:06:59;2.97;;;0.88;;
73980;SDS011;62348;51.412;5.436;2023-09-19T14:09:25;1.38;;;0.80;;
73980;SDS011;62348;51.412;5.436;2023-09-19T14:11:51;2.40;;;0.90;;
73980;SDS011;62348;51.412;5.436;2023-09-19T14:14:20;6.00;;;0.80;;
73980;SDS011;62348;51.412;5.436;2023-09-19T14:16:46;5.25;;;0.93;;
73980;SDS011;62348;51.412;5.436;2023-09-19T14:19:13;2.72;;;1.00;;
73980;SDS011;62348;51.412;5.436;2023-09-19T14:21:41;3.15;;;0.93;;
73980;SDS011;62348;51.412;5.436;2023-09-19T14:24:07;4.30;;;1.08;;
73980;SDS011;62348;51.412;5.436;2023-09-19T14:26:34;3.55;;;2.15;;
73980;SDS011;62348;51.412;5.436;2023-09-19T14:29:09;3.88;;;0.98;;
73980;SDS011;62348;51.412;5.436;2023-09-19T14:31:37;4.03;;;1.30;;
73980;SDS011;62348;51.412;5.436;2023-09-19T14:34:05;4.82;;;1.13;;
73980;SDS011;62348;51.412;5.436;2023-09-19T14:36:31;5.55;;;1.20;;
73980;SDS011;62348;51.412;5.436;2023-09-19T14:38:57;2.42;;;0.90;;
73980;SDS011;62348;51.412;5.436;2023-09-19T14:41:22;3.22;;;1.15;;
73980;SDS011;62348;51.412;5.436;2023-09-19T14:43:50;3.38;;;0.90;;
73980;SDS011;62348;51.412;5.436;2023-09-19T14:46:20;4.90;;;1.27;;
73980;SDS011;62348;51.412;5.436;2023-09-19T14:48:45;2.03;;;1.00;;
73980;SDS011;62348;51.412;5.436;2023-09-19T14:51:12;3.92;;;1.10;;
73980;SDS011;62348;51.412;5.436;2023-09-19T14:53:38;4.22;;;1.00;;
73980;SDS011;62348;51.412;5.436;2023-09-19T14:56:05;3.42;;;0.85;;
73980;SDS011;62348;51.412;5.436;2023-09-19T14:58:32;4.30;;;1.45;;
73980;SDS011;62348;51.412;5.436;2023-09-19T15:01:05;5.97;;;0.93;;
73980;SDS011;62348;51.412;5.436;2023-09-19T15:03:32;5.25;;;1.02;;
73980;SDS011;62348;51.412;5.436;2023-09-19T15:06:02;7.35;;;1.40;;
73980;SDS011;62348;51.412;5.436;2023-09-19T15:08:32;5.82;;;1.20;;
73980;SDS011;62348;51.412;5.436;2023-09-19T15:11:00;5.55;;;1.40;;
73980;SDS011;62348;51.412;5.436;2023-09-19T15:13:29;1.83;;;0.90;;
73980;SDS011;62348;51.412;5.436;2023-09-19T15:16:02;4.80;;;1.23;;
73980;SDS011;62348;51.412;5.436;2023-09-19T15:18:28;3.10;;;1.02;;
73980;SDS011;62348;51.412;5.436;2023-09-19T15:21:02;4.55;;;1.55;;
73980;SDS011;62348;51.412;5.436;2023-09-19T15:23:29;3.20;;;1.08;;
73980;SDS011;62348;51.412;5.436;2023-09-19T15:25:56;4.50;;;1.50;;
73980;SDS011;62348;51.412;5.436;2023-09-19T15:28:21;4.30;;;1.20;;
73980;SDS011;62348;51.412;5.436;2023-09-19T15:30:48;3.15;;;1.00;;
73980;SDS011;62348;51.412;5.436;2023-09-19T15:33:14;4.38;;;1.30;;
73980;SDS011;62348;51.412;5.436;2023-09-19T15:35:40;2.45;;;1.20;;
73980;SDS011;62348;51.412;5.436;2023-09-19T15:38:05;7.07;;;1.77;;
73980;SDS011;62348;51.412;5.436;2023-09-19T15:40:32;1.95;;;0.88;;
73980;SDS011;62348;51.412;5.436;2023-09-19T15:42:58;3.38;;;1.17;;
73980;SDS011;62348;51.412;5.436;2023-09-19T15:45:23;2.17;;;0.98;;
73980;SDS011;62348;51.412;5.436;2023-09-19T15:47:50;3.97;;;1.30;;
73980;SDS011;62348;51.412;5.436;2023-09-19T15:50:16;5.20;;;1.25;;
73980;SDS011;62348;51.412;5.436;2023-09-19T15:52:42;4.45;;;1.70;;
73980;SDS011;62348;51.412;5.436;2023-09-19T15:55:08;5.28;;;2.00;;
73980;SDS011;62348;51.412;5.436;2023-09-19T15:57:37;4.10;;;1.27;;
73980;SDS011;62348;51.412;5.436;2023-09-19T16:00:04;5.85;;;2.05;;
73980;SDS011;62348;51.412;5.436;2023-09-19T16:02:38;4.82;;;1.20;;
73980;SDS011;62348;51.412;5.436;2023-09-19T16:05:04;4.93;;;1.10;;
73980;SDS011;62348;51.412;5.436;2023-09-19T16:07:32;3.60;;;1.45;;
73980;SDS011;62348;51.412;5.436;2023-09-19T16:09:58;5.60;;;1.60;;
73980;SDS011;62348;51.412;5.436;2023-09-19T16:12:25;2.58;;;1.02;;
73980;SDS011;62348;51.412;5.436;2023-09-19T16:14:51;6.30;;;1.98;;
73980;SDS011;62348;51.412;5.436;2023-09-19T16:17:16;2.63;;;1.15;;
73980;SDS011;62348;51.412;5.436;2023-09-19T16:19:41;3.20;;;1.48;;
73980;SDS011;62348;51.412;5.436;2023-09-19T16:22:08;5.20;;;1.10;;
73980;SDS011;62348;51.412;5.436;2023-09-19T16:24:34;3.83;;;1.42;;